Time;durP1;ratioP1;P1;durP2;ratioP2;P2;SDS_P1;SDS_P2;PMS_P1;PMS_P2;Temp;Humidity;BMP_temperature;BMP_pressure;BME280_temperature;BME280_humidity;BME280_pressure;Samples;Min_cycle;Max_cycle;Signal;HPM_P1;HPM_P2
2022/04/24 00:00:36;;;;;;;;;;;18.60;56.20;;;;;;5031824;28;1945;-75
2022/04/24 00:03:02;;;;;;;;;;;18.60;55.60;;;;;;5048224;28;1188;-74
2022/04/24 00:05:27;;;;;;;;;;;18.60;55.70;;;;;;5031733;28;1232;-74
2022/04/24 00:07:52;;;;;;;;;;;18.60;55.70;;;;;;5032762;28;819;-74
2022/04/24 00:10:18;;;;;;;;;;;18.60;55.70;;;;;;5031598;28;895;-74
2022/04/24 00:12:43;;;;;;;;;;;18.60;55.70;;;;;;5033150;28;788;-74
2022/04/24 00:15:09;;;;;;;;;;;18.60;55.80;;;;;;5032874;28;1288;-73
2022/04/24 00:17:34;;;;;;;;;;;18.60;55.80;;;;;;5032521;28;1138;-74
2022/04/24 00:20:00;;;;;;;;;;;18.60;55.80;;;;;;5032661;28;1902;-74
2022/04/24 00:22:25;;;;;;;;;;;18.60;55.80;;;;;;5032753;28;930;-74
2022/04/24 00:24:50;;;;;;;;;;;18.60;55.90;;;;;;5048189;28;950;-74
2022/04/24 00:27:16;;;;;;;;;;;18.60;55.90;;;;;;5032398;28;1166;-74
2022/04/24 00:29:43;;;;;;;;;;;18.60;55.90;;;;;;5032746;28;1070;-74
2022/04/24 00:32:08;;;;;;;;;;;18.60;55.90;;;;;;5047835;28;889;-74
2022/04/24 00:34:34;;;;;;;;;;;18.60;55.90;;;;;;5051945;28;1021;-74
2022/04/24 00:36:59;;;;;;;;;;;18.60;55.90;;;;;;5031104;28;1275;-74
2022/04/24 00:39:25;;;;;;;;;;;18.60;56.00;;;;;;5036323;28;1948;-74
2022/04/24 00:41:50;;;;;;;;;;;18.60;56.00;;;;;;5036616;28;883;-74
2022/04/24 00:44:16;;;;;;;;;;;18.60;56.00;;;;;;5035238;28;929;-73
2022/04/24 00:46:42;;;;;;;;;;;18.60;56.10;;;;;;5035171;28;1221;-73
2022/04/24 00:49:08;;;;;;;;;;;18.60;56.10;;;;;;5034967;28;776;-74
2022/04/24 00:51:34;;;;;;;;;;;18.60;56.10;;;;;;5036412;28;780;-74
2022/04/24 00:53:59;;;;;;;;;;;18.60;56.10;;;;;;5018507;28;876;-74
2022/04/24 00:56:30;;;;;;;;;;;18.60;56.10;;;;;;5035229;28;1205;-73
2022/04/24 00:58:55;;;;;;;;;;;18.60;56.10;;;;;;5034796;28;1902;-74
2022/04/24 01:01:21;;;;;;;;;;;18.60;56.10;;;;;;5036115;28;1194;-71
2022/04/24 01:03:46;;;;;;;;;;;18.60;56.20;;;;;;5034908;28;916;-72
2022/04/24 01:06:12;;;;;;;;;;;18.50;56.20;;;;;;5051311;28;1291;-71
2022/04/24 01:08:37;;;;;;;;;;;18.60;56.20;;;;;;5034648;28;1186;-72
2022/04/24 01:11:03;;;;;;;;;;;18.50;56.20;;;;;;5035941;28;895;-71
2022/04/24 01:13:28;;;;;;;;;;;18.50;56.20;;;;;;5051340;28;1474;-71
2022/04/24 01:15:56;;;;;;;;;;;18.60;56.30;;;;;;5034439;28;1276;-72
2022/04/24 01:18:21;;;;;;;;;;;18.50;56.20;;;;;;5040494;28;1122;-71
2022/04/24 01:20:47;;;;;;;;;;;18.50;56.30;;;;;;5034458;28;1964;-71
2022/04/24 01:23:13;;;;;;;;;;;18.50;56.30;;;;;;5034633;28;759;-71
2022/04/24 01:25:39;;;;;;;;;;;18.50;56.30;;;;;;5034408;28;1402;-71
2022/04/24 01:28:08;;;;;;;;;;;18.50;56.40;;;;;;5034206;28;1041;-71
2022/04/24 01:30:34;;;;;;;;;;;18.50;56.30;;;;;;5034275;28;859;-71
2022/04/24 01:32:59;;;;;;;;;;;18.50;56.40;;;;;;5035777;28;1013;-71
2022/04/24 01:35:25;;;;;;;;;;;18.50;56.40;;;;;;5035469;28;1287;-72
2022/04/24 01:37:50;;;;;;;;;;;18.50;56.40;;;;;;5034238;28;1206;-72
2022/04/24 01:40:15;;;;;;;;;;;18.50;56.40;;;;;;5034089;28;1894;-70
2022/04/24 01:42:41;;;;;;;;;;;18.50;56.40;;;;;;5050890;28;958;-71
2022/04/24 01:45:07;;;;;;;;;;;18.50;56.40;;;;;;5049564;28;1235;-72
2022/04/24 01:47:32;;;;;;;;;;;18.50;56.50;;;;;;5050826;28;1005;-71
2022/04/24 01:49:57;;;;;;;;;;;18.50;56.50;;;;;;5035202;28;801;-72
2022/04/24 01:52:23;;;;;;;;;;;18.50;56.50;;;;;;5035372;28;899;-72
2022/04/24 01:54:48;;;;;;;;;;;18.50;56.50;;;;;;5035174;28;965;-71
2022/04/24 01:57:14;;;;;;;;;;;18.50;56.50;;;;;;5034951;28;1209;-72
2022/04/24 01:59:39;;;;;;;;;;;18.50;56.50;;;;;;5034890;28;1940;-71
2022/04/24 02:02:05;;;;;;;;;;;18.50;56.60;;;;;;5033671;28;1132;-72
2022/04/24 02:04:30;;;;;;;;;;;18.50;56.60;;;;;;5050342;28;1002;-72
2022/04/24 02:06:55;;;;;;;;;;;18.50;56.60;;;;;;5050229;28;1264;-71
2022/04/24 02:09:21;;;;;;;;;;;18.50;56.60;;;;;;5034728;28;762;-71
2022/04/24 02:11:46;;;;;;;;;;;18.50;56.60;;;;;;5034893;28;803;-71
2022/04/24 02:14:12;;;;;;;;;;;18.50;56.60;;;;;;5033501;28;931;-72
2022/04/24 02:16:37;;;;;;;;;;;18.50;56.60;;;;;;5034622;28;1279;-72
2022/04/24 02:19:03;;;;;;;;;;;18.50;56.60;;;;;;5046486;28;1957;-71
2022/04/24 02:21:28;;;;;;;;;;;18.50;56.60;;;;;;5014887;28;994;-71
2022/04/24 02:23:54;;;;;;;;;;;18.50;56.70;;;;;;5030215;28;820;-71
2022/04/24 02:26:19;;;;;;;;;;;18.50;56.70;;;;;;5014872;28;1292;-71
2022/04/24 02:28:45;;;;;;;;;;;18.50;56.70;;;;;;5029745;28;876;-71
2022/04/24 02:31:10;;;;;;;;;;;18.50;56.70;;;;;;5014496;28;808;-72
2022/04/24 02:33:36;;;;;;;;;;;18.50;56.70;;;;;;5029960;28;692;-71
2022/04/24 02:36:01;;;;;;;;;;;18.50;56.70;;;;;;5029964;28;1208;-72
2022/04/24 02:38:27;;;;;;;;;;;18.50;56.80;;;;;;5014662;28;954;-71
2022/04/24 02:40:53;;;;;;;;;;;18.50;56.80;;;;;;5014496;28;1951;-72
2022/04/24 02:43:19;;;;;;;;;;;18.40;56.70;;;;;;5014592;28;781;-71
2022/04/24 02:45:44;;;;;;;;;;;18.40;56.80;;;;;;5014114;28;1229;-71
2022/04/24 02:48:10;;;;;;;;;;;18.40;56.70;;;;;;5014275;28;824;-71
2022/04/24 02:50:35;;;;;;;;;;;18.50;56.80;;;;;;5029740;28;748;-70
2022/04/24 02:53:01;;;;;;;;;;;18.50;56.90;;;;;;5014411;28;922;-71
2022/04/24 02:55:26;;;;;;;;;;;18.50;56.90;;;;;;5013981;28;1193;-71
2022/04/24 02:57:52;;;;;;;;;;;18.50;56.90;;;;;;5029273;28;772;-72
2022/04/24 03:00:19;;;;;;;;;;;18.50;56.90;;;;;;5029174;28;1906;-71
2022/04/24 03:02:45;;;;;;;;;;;18.50;56.90;;;;;;5040996;28;1214;-71
2022/04/24 03:05:14;;;;;;;;;;;18.50;56.90;;;;;;5033579;28;1285;-71
2022/04/24 03:07:40;;;;;;;;;;;18.50;57.00;;;;;;5033650;28;1017;-72
2022/04/24 03:10:05;;;;;;;;;;;18.50;57.00;;;;;;5049185;28;902;-71
2022/04/24 03:12:31;;;;;;;;;;;18.40;56.90;;;;;;5049033;28;1064;-72
2022/04/24 03:14:56;;;;;;;;;;;18.50;57.00;;;;;;5033526;28;1077;-71
2022/04/24 03:17:22;;;;;;;;;;;18.50;57.00;;;;;;5033297;28;1186;-74
2022/04/24 03:19:48;;;;;;;;;;;18.40;57.00;;;;;;5033448;28;1960;-73
2022/04/24 03:22:13;;;;;;;;;;;18.50;57.00;;;;;;5033600;28;935;-74
2022/04/24 03:24:39;;;;;;;;;;;18.40;57.00;;;;;;5033528;28;896;-74
2022/04/24 03:27:04;;;;;;;;;;;18.40;57.00;;;;;;5033426;28;1311;-74
2022/04/24 03:29:30;;;;;;;;;;;18.40;57.00;;;;;;5033159;28;1026;-74
2022/04/24 03:31:55;;;;;;;;;;;18.40;57.00;;;;;;5032201;28;1272;-74
2022/04/24 03:34:21;;;;;;;;;;;18.40;57.00;;;;;;5033625;28;769;-74
2022/04/24 03:36:46;;;;;;;;;;;18.40;57.00;;;;;;5033248;28;1205;-73
2022/04/24 03:39:12;;;;;;;;;;;18.40;57.00;;;;;;5031952;28;1902;-73
2022/04/24 03:41:37;;;;;;;;;;;18.40;57.10;;;;;;5033398;28;835;-73
2022/04/24 03:44:03;;;;;;;;;;;18.40;57.10;;;;;;5033524;28;775;-73
2022/04/24 03:46:28;;;;;;;;;;;18.40;57.10;;;;;;5015471;28;1305;-71
2022/04/24 03:48:54;;;;;;;;;;;18.40;57.10;;;;;;5031858;28;776;-71
2022/04/24 03:51:19;;;;;;;;;;;18.40;57.10;;;;;;5033125;28;644;-72
2022/04/24 03:53:45;;;;;;;;;;;18.40;57.10;;;;;;5031885;28;831;-71
2022/04/24 03:56:11;;;;;;;;;;;18.40;57.10;;;;;;5032974;28;1205;-71
2022/04/24 03:58:37;;;;;;;;;;;18.40;57.10;;;;;;5032700;28;799;-71
2022/04/24 04:01:03;;;;;;;;;;;18.40;57.10;;;;;;5031768;28;1910;-71
2022/04/24 04:03:28;;;;;;;;;;;18.40;57.20;;;;;;5015462;28;1247;-73
2022/04/24 04:05:53;;;;;;;;;;;18.40;57.20;;;;;;5053158;22;1855;-69
2022/04/24 04:08:19;;;;;;;;;;;18.40;57.20;;;;;;5017351;28;879;-69
2022/04/24 04:10:44;;;;;;;;;;;18.40;57.20;;;;;;5019695;28;771;-69
2022/04/24 04:13:10;;;;;;;;;;;18.40;57.20;;;;;;5034971;28;934;-69
2022/04/24 04:15:35;;;;;;;;;;;18.50;57.20;;;;;;5034954;28;1215;-69
2022/04/24 04:18:01;;;;;;;;;;;18.50;57.10;;;;;;5030692;28;1087;-69
2022/04/24 04:20:26;;;;;;;;;;;18.50;57.10;;;;;;5038377;28;1977;-69
2022/04/24 04:22:52;;;;;;;;;;;18.50;57.00;;;;;;5039880;28;781;-69
2022/04/24 04:25:21;;;;;;;;;;;18.50;56.90;;;;;;5039334;28;795;-69
2022/04/24 04:27:47;;;;;;;;;;;18.60;56.90;;;;;;5037811;28;1338;-69
2022/04/24 04:30:12;;;;;;;;;;;18.60;56.80;;;;;;5039313;28;1193;-69
2022/04/24 04:32:38;;;;;;;;;;;18.60;56.80;;;;;;5038135;28;795;-69
2022/04/24 04:35:05;;;;;;;;;;;18.60;56.70;;;;;;5039069;28;887;-69
2022/04/24 04:37:31;;;;;;;;;;;18.70;56.70;;;;;;5039034;28;1269;-69
2022/04/24 04:39:57;;;;;;;;;;;18.70;56.60;;;;;;5039098;28;2254;-69
2022/04/24 04:42:22;;;;;;;;;;;18.70;56.50;;;;;;5039211;28;1122;-69
2022/04/24 04:44:48;;;;;;;;;;;18.70;56.50;;;;;;5039393;28;946;-69
2022/04/24 04:47:13;;;;;;;;;;;18.70;56.50;;;;;;5038922;28;1184;-69
2022/04/24 04:49:39;;;;;;;;;;;18.70;56.40;;;;;;5039128;28;1052;-69
2022/04/24 04:52:04;;;;;;;;;;;18.80;56.40;;;;;;5038093;28;1202;-69
2022/04/24 04:54:30;;;;;;;;;;;18.80;56.40;;;;;;5037935;28;831;-69
2022/04/24 04:56:55;;;;;;;;;;;18.80;56.30;;;;;;5037710;28;1196;-69
2022/04/24 04:59:21;;;;;;;;;;;18.80;56.30;;;;;;5038772;28;1902;-69
2022/04/24 05:01:46;;;;;;;;;;;18.80;56.30;;;;;;5038925;28;1198;-69
2022/04/24 05:04:11;;;;;;;;;;;18.80;56.30;;;;;;5039260;28;890;-69
2022/04/24 05:06:37;;;;;;;;;;;18.80;56.20;;;;;;5038824;28;1203;-70
2022/04/24 05:09:03;;;;;;;;;;;18.80;56.20;;;;;;5038807;28;854;-69
2022/04/24 05:11:29;;;;;;;;;;;18.80;56.20;;;;;;5037669;28;803;-70
2022/04/24 05:13:54;;;;;;;;;;;18.90;56.20;;;;;;5039018;28;1013;-69
2022/04/24 05:16:20;;;;;;;;;;;18.90;56.20;;;;;;5038825;28;1197;-69
2022/04/24 05:18:45;;;;;;;;;;;18.90;56.20;;;;;;5038152;28;1166;-69
2022/04/24 05:21:10;;;;;;;;;;;18.90;56.20;;;;;;5034403;28;1898;-68
2022/04/24 05:23:36;;;;;;;;;;;18.90;56.10;;;;;;5035890;28;848;-70
2022/04/24 05:26:01;;;;;;;;;;;18.90;56.10;;;;;;5035505;28;1288;-70
2022/04/24 05:28:27;;;;;;;;;;;18.90;56.10;;;;;;5035412;28;807;-69
2022/04/24 05:30:54;;;;;;;;;;;18.90;56.10;;;;;;5034455;28;871;-70
2022/04/24 05:33:19;;;;;;;;;;;18.90;56.10;;;;;;5035660;28;811;-69
2022/04/24 05:35:45;;;;;;;;;;;18.90;56.10;;;;;;5035493;28;1280;-70
2022/04/24 05:38:11;;;;;;;;;;;18.90;56.10;;;;;;5035191;28;1209;-69
2022/04/24 05:40:36;;;;;;;;;;;18.90;56.10;;;;;;5035161;28;1906;-69
2022/04/24 05:43:01;;;;;;;;;;;18.90;56.10;;;;;;5035505;28;776;-69
2022/04/24 05:45:27;;;;;;;;;;;18.90;56.10;;;;;;5035287;28;993;-70
2022/04/24 05:47:56;;;;;;;;;;;18.90;56.10;;;;;;5035032;28;1286;-69
2022/04/24 05:50:24;;;;;;;;;;;18.90;56.00;;;;;;5034225;28;836;-70
2022/04/24 05:52:52;;;;;;;;;;;19.00;56.10;;;;;;5035351;28;1025;-70
2022/04/24 05:55:17;;;;;;;;;;;18.90;56.00;;;;;;5033793;28;1207;-69
2022/04/24 05:57:43;;;;;;;;;;;19.00;56.10;;;;;;5034812;28;1219;-69
2022/04/24 06:00:08;;;;;;;;;;;19.00;56.10;;;;;;5034971;28;1956;-68
2022/04/24 06:02:34;;;;;;;;;;;19.00;56.10;;;;;;5035106;28;1174;-69
2022/04/24 06:04:59;;;;;;;;;;;19.00;56.10;;;;;;5035040;28;842;-71
2022/04/24 06:07:25;;;;;;;;;;;18.90;56.00;;;;;;5034605;28;1351;-70
2022/04/24 06:09:50;;;;;;;;;;;19.00;55.20;;;;;;5033518;28;819;-69
2022/04/24 06:12:16;;;;;;;;;;;19.00;54.40;;;;;;5034977;28;954;-69
2022/04/24 06:14:42;;;;;;;;;;;18.90;53.70;;;;;;5034815;28;886;-69
2022/04/24 06:17:07;;;;;;;;;;;19.00;53.70;;;;;;5034433;28;1165;-71
2022/04/24 06:19:33;;;;;;;;;;;19.00;53.90;;;;;;5033899;28;1994;-69
2022/04/24 06:21:59;;;;;;;;;;;19.00;54.00;;;;;;5025481;28;1949;-69
2022/04/24 06:24:24;;;;;;;;;;;18.90;53.80;;;;;;5025344;28;1644;-67
2022/04/24 06:26:50;;;;;;;;;;;19.00;53.70;;;;;;5029354;28;1284;-71
2022/04/24 06:29:15;;;;;;;;;;;19.00;53.80;;;;;;5029607;28;2208;-71
2022/04/24 06:31:41;;;;;;;;;;;19.00;54.10;;;;;;5031263;28;1254;-71
2022/04/24 06:34:06;;;;;;;;;;;19.00;54.20;;;;;;5033298;28;1098;-70
2022/04/24 06:36:32;;;;;;;;;;;18.90;54.20;;;;;;5033863;28;1300;-72
2022/04/24 06:38:57;;;;;;;;;;;18.90;54.30;;;;;;5033099;28;1058;-71
2022/04/24 06:41:23;;;;;;;;;;;19.00;54.40;;;;;;5033995;28;1953;-71
2022/04/24 06:43:48;;;;;;;;;;;19.00;54.50;;;;;;5016513;28;982;-69
2022/04/24 06:46:13;;;;;;;;;;;19.00;54.60;;;;;;5034151;28;1216;-70
2022/04/24 06:48:39;;;;;;;;;;;19.00;54.60;;;;;;5034017;28;873;-69
2022/04/24 06:51:04;;;;;;;;;;;19.00;54.70;;;;;;5034010;28;706;-69
2022/04/24 06:53:30;;;;;;;;;;;19.00;54.70;;;;;;5033932;28;779;-70
2022/04/24 06:55:56;;;;;;;;;;;19.00;54.80;;;;;;5032859;28;1273;-70
2022/04/24 06:58:24;;;;;;;;;;;19.00;54.90;;;;;;5033689;28;1002;-70
2022/04/24 07:00:49;;;;;;;;;;;19.00;55.00;;;;;;5033809;28;1919;-69
2022/04/24 07:03:21;;;;;;;;;;;19.00;55.00;;;;;;5033929;28;1131;-70
2022/04/24 07:05:46;;;;;;;;;;;19.10;55.00;;;;;;5032378;28;1182;-69
2022/04/24 07:08:12;;;;;;;;;;;19.10;55.50;;;;;;5033505;28;795;-69
2022/04/24 07:10:37;;;;;;;;;;;19.30;55.70;;;;;;5033716;28;1021;-70
2022/04/24 07:13:03;;;;;;;;;;;19.30;55.80;;;;;;5032573;28;994;-69
2022/04/24 07:15:35;;;;;;;;;;;19.40;55.80;;;;;;5033621;28;820;-69
2022/04/24 07:18:00;;;;;;;;;;;19.50;56.00;;;;;;5032190;28;1170;-69
2022/04/24 07:20:27;;;;;;;;;;;19.60;56.10;;;;;;5032532;28;1956;-69
2022/04/24 07:22:53;;;;;;;;;;;19.60;56.30;;;;;;5033539;28;831;-69
2022/04/24 07:25:19;;;;;;;;;;;19.70;56.10;;;;;;5033409;28;1069;-69
2022/04/24 07:27:45;;;;;;;;;;;19.80;56.30;;;;;;5031972;28;1438;-70
2022/04/24 07:30:13;;;;;;;;;;;19.80;55.90;;;;;;5032040;28;1352;-70
2022/04/24 07:32:59;;;;;;;;;;;19.80;55.80;;;;;;5032275;28;939;-70
2022/04/24 07:35:28;;;;;;;;;;;19.80;55.80;;;;;;5032954;28;1038;-70
2022/04/24 07:37:54;;;;;;;;;;;19.90;55.80;;;;;;5031790;28;1220;-69
2022/04/24 07:40:20;;;;;;;;;;;19.90;55.90;;;;;;5033113;28;1922;-70
2022/04/24 07:43:17;;;;;;;;;;;19.90;56.00;;;;;;5032419;28;875;-70
2022/04/24 07:45:44;;;;;;;;;;;19.90;56.30;;;;;;5010146;28;1456;-70
2022/04/24 07:48:10;;;;;;;;;;;19.90;56.50;;;;;;5032035;28;1066;-71
2022/04/24 07:50:36;;;;;;;;;;;19.90;56.70;;;;;;5033434;28;1041;-71
2022/04/24 07:53:02;;;;;;;;;;;19.90;56.80;;;;;;5032032;28;918;-70
2022/04/24 07:55:27;;;;;;;;;;;19.90;56.80;;;;;;5033134;28;961;-70
2022/04/24 07:57:53;;;;;;;;;;;19.90;57.00;;;;;;5032802;28;1193;-69
2022/04/24 08:00:20;;;;;;;;;;;19.90;57.10;;;;;;5031572;28;1955;-70
2022/04/24 08:02:46;;;;;;;;;;;19.90;57.50;;;;;;5033527;28;1163;-70
2022/04/24 08:05:12;;;;;;;;;;;19.90;57.60;;;;;;5033407;28;728;-69
2022/04/24 08:07:37;;;;;;;;;;;19.90;57.60;;;;;;5032698;28;1168;-70
2022/04/24 08:10:03;;;;;;;;;;;19.90;57.60;;;;;;5026501;28;1532;-71
2022/04/24 08:12:28;;;;;;;;;;;19.90;57.60;;;;;;5043513;28;1218;-71
2022/04/24 08:14:54;;;;;;;;;;;19.90;57.60;;;;;;5051287;28;808;-72
2022/04/24 08:17:19;;;;;;;;;;;19.90;57.60;;;;;;5046272;28;1395;-69
2022/04/24 08:19:45;;;;;;;;;;;19.80;57.60;;;;;;5032316;28;1902;-71
2022/04/24 08:22:10;;;;;;;;;;;19.90;57.60;;;;;;5032731;28;820;-71
2022/04/24 08:24:35;;;;;;;;;;;19.90;57.80;;;;;;5032864;28;791;-72
2022/04/24 08:27:01;;;;;;;;;;;19.90;57.80;;;;;;5031147;28;1236;-72
2022/04/24 08:29:26;;;;;;;;;;;19.90;57.90;;;;;;5032734;28;986;-72
2022/04/24 08:31:52;;;;;;;;;;;19.90;57.90;;;;;;5032612;28;888;-71
2022/04/24 08:34:17;;;;;;;;;;;19.80;57.90;;;;;;5032641;28;1100;-71
2022/04/24 08:36:43;;;;;;;;;;;19.80;58.10;;;;;;5032580;28;1203;-70
2022/04/24 08:39:08;;;;;;;;;;;19.90;58.40;;;;;;5032329;28;969;-71
2022/04/24 08:41:34;;;;;;;;;;;19.80;58.40;;;;;;5031152;28;1956;-71
2022/04/24 08:44:00;;;;;;;;;;;19.90;58.50;;;;;;5031277;28;807;-71
2022/04/24 08:46:25;;;;;;;;;;;19.90;58.40;;;;;;5031234;28;1274;-70
2022/04/24 08:48:50;;;;;;;;;;;19.90;59.00;;;;;;5032544;28;1013;-69
2022/04/24 08:51:16;;;;;;;;;;;19.80;58.30;;;;;;5032531;28;808;-69
2022/04/24 08:53:41;;;;;;;;;;;19.90;58.30;;;;;;5032114;28;803;-70
2022/04/24 08:56:07;;;;;;;;;;;19.80;58.30;;;;;;5031009;28;1557;-70
2022/04/24 08:58:32;;;;;;;;;;;19.80;58.40;;;;;;5035944;28;1627;-69
2022/04/24 09:00:58;;;;;;;;;;;19.80;58.40;;;;;;5054479;28;1902;-69
2022/04/24 09:03:23;;;;;;;;;;;19.80;59.00;;;;;;5036115;28;1710;-69
2022/04/24 09:05:48;;;;;;;;;;;19.80;58.50;;;;;;5038478;28;1292;-70
2022/04/24 09:08:14;;;;;;;;;;;19.80;58.50;;;;;;5035704;28;828;-69
2022/04/24 09:11:09;;;;;;;;;;;19.80;58.50;;;;;;5035881;28;1282;-70
2022/04/24 09:14:14;;;;;;;;;;;19.80;58.70;;;;;;5031137;28;1247;-70
2022/04/24 09:16:33;;;;;;;;;;;19.80;58.80;;;;;;5034070;28;1199;-70
2022/04/24 09:18:59;;;;;;;;;;;19.80;58.80;;;;;;5035437;28;1068;-72
2022/04/24 09:21:24;;;;;;;;;;;19.80;58.90;;;;;;5035466;28;1906;-70
2022/04/24 09:23:50;;;;;;;;;;;19.70;59.00;;;;;;5034447;28;808;-71
2022/04/24 09:26:18;;;;;;;;;;;19.70;59.10;;;;;;5034024;28;1248;-71
2022/04/24 09:28:43;;;;;;;;;;;19.80;59.20;;;;;;5033417;28;883;-71
2022/04/24 09:31:09;;;;;;;;;;;19.80;59.20;;;;;;5035615;28;943;-71
2022/04/24 09:33:35;;;;;;;;;;;19.80;59.20;;;;;;5035708;28;891;-71
2022/04/24 09:36:01;;;;;;;;;;;19.80;59.20;;;;;;5035356;28;1267;-71
2022/04/24 09:38:27;;;;;;;;;;;19.80;59.20;;;;;;5035240;28;1159;-71
2022/04/24 09:40:52;;;;;;;;;;;19.80;59.10;;;;;;5035366;28;1906;-69
2022/04/24 09:43:19;;;;;;;;;;;19.80;59.10;;;;;;5035483;28;804;-71
2022/04/24 09:45:48;;;;;;;;;;;19.80;59.10;;;;;;5035484;28;1372;-70
2022/04/24 09:48:14;;;;;;;;;;;19.80;59.20;;;;;;5034053;28;879;-71
2022/04/24 09:50:40;;;;;;;;;;;19.80;59.30;;;;;;5035152;28;850;-70
2022/04/24 09:53:05;;;;;;;;;;;19.70;59.30;;;;;;5034018;28;1544;-70
2022/04/24 09:55:31;;;;;;;;;;;19.70;59.20;;;;;;5035268;28;802;-71
2022/04/24 09:57:56;;;;;;;;;;;19.70;59.20;;;;;;5035428;28;808;-70
2022/04/24 10:00:22;;;;;;;;;;;19.70;59.30;;;;;;5033859;28;1965;-72
2022/04/24 10:02:50;;;;;;;;;;;19.70;59.30;;;;;;5033830;28;1241;-70
2022/04/24 10:05:15;;;;;;;;;;;19.70;59.30;;;;;;5032281;28;2182;-72
2022/04/24 10:07:41;;;;;;;;;;;19.70;59.40;;;;;;5041365;22;1898;-72
2022/04/24 10:10:07;;;;;;;;;;;19.60;59.40;;;;;;5013187;28;1053;-71
2022/04/24 10:12:33;;;;;;;;;;;19.60;59.40;;;;;;5014632;28;807;-71
2022/04/24 10:15:02;;;;;;;;;;;19.60;59.50;;;;;;4980907;28;908;-71
2022/04/24 10:17:46;;;;;;;;;;;19.60;59.50;;;;;;4992963;28;1241;-72
2022/04/24 10:20:16;;;;;;;;;;;19.60;59.50;;;;;;5009966;28;2003;-69
2022/04/24 10:22:47;;;;;;;;;;;19.60;59.60;;;;;;4994804;28;807;-70
2022/04/24 10:25:14;;;;;;;;;;;19.60;59.60;;;;;;4994017;28;1164;-70
2022/04/24 10:27:40;;;;;;;;;;;19.60;59.60;;;;;;4992924;28;1308;-70
2022/04/24 10:30:06;;;;;;;;;;;19.60;59.60;;;;;;5009705;28;1476;-69
2022/04/24 10:32:32;;;;;;;;;;;19.60;59.60;;;;;;4993526;28;910;-69
2022/04/24 10:34:58;;;;;;;;;;;19.60;59.50;;;;;;4990914;28;2206;-69
2022/04/24 10:37:24;;;;;;;;;;;19.60;59.50;;;;;;4984880;28;1304;-70
2022/04/24 10:39:54;;;;;;;;;;;19.70;59.60;;;;;;4981388;28;1960;-70
2022/04/24 10:42:27;;;;;;;;;;;19.70;59.70;;;;;;4999195;28;1167;-69
2022/04/24 10:44:55;;;;;;;;;;;19.60;59.60;;;;;;4971991;28;1324;-68
2022/04/24 10:47:20;;;;;;;;;;;19.60;59.60;;;;;;5013048;28;1209;-69
2022/04/24 10:49:46;;;;;;;;;;;19.60;59.70;;;;;;4996586;28;931;-68
2022/04/24 10:52:11;;;;;;;;;;;19.60;59.70;;;;;;4996259;28;954;-68
2022/04/24 10:54:38;;;;;;;;;;;19.60;60.40;;;;;;4996552;28;800;-69
2022/04/24 10:57:16;;;;;;;;;;;19.60;59.80;;;;;;5009889;28;2219;-70
2022/04/24 10:59:45;;;;;;;;;;;19.60;59.90;;;;;;5003739;28;1960;-69
2022/04/24 11:02:11;;;;;;;;;;;19.60;60.10;;;;;;4983214;28;1112;-69
2022/04/24 11:04:40;;;;;;;;;;;19.60;60.20;;;;;;4985447;28;1296;-68
2022/04/24 11:07:06;;;;;;;;;;;19.60;60.20;;;;;;4995824;28;1214;-69
2022/04/24 11:09:35;;;;;;;;;;;19.60;60.30;;;;;;5012479;28;1308;-68
2022/04/24 11:12:04;;;;;;;;;;;19.60;60.30;;;;;;5006669;28;1107;-69
2022/04/24 11:14:30;;;;;;;;;;;19.60;60.50;;;;;;4997036;28;1111;-70
2022/04/24 11:16:59;;;;;;;;;;;19.60;60.60;;;;;;4989712;28;2313;-71
2022/04/24 11:19:28;;;;;;;;;;;19.60;60.50;;;;;;4991252;28;1952;-70
2022/04/24 11:21:54;;;;;;;;;;;19.60;60.60;;;;;;4987868;28;1328;-70
2022/04/24 11:24:20;;;;;;;;;;;19.60;60.60;;;;;;4991006;28;816;-70
2022/04/24 11:26:48;;;;;;;;;;;19.60;60.70;;;;;;4993150;28;1220;-70
2022/04/24 11:29:13;;;;;;;;;;;19.60;60.80;;;;;;5008136;28;789;-70
2022/04/24 11:31:46;;;;;;;;;;;19.60;60.80;;;;;;4993499;28;1057;-70
2022/04/24 11:34:12;;;;;;;;;;;19.60;60.70;;;;;;4993504;28;816;-70
2022/04/24 11:36:37;;;;;;;;;;;19.50;60.80;;;;;;4992231;28;1276;-70
2022/04/24 11:39:04;;;;;;;;;;;19.50;60.80;;;;;;4993144;28;800;-68
2022/04/24 11:41:29;;;;;;;;;;;19.50;60.80;;;;;;4988063;28;2138;-68
2022/04/24 11:52:23;;;;;;;;;;;19.50;60.90;;;;;;4993585;28;675;-68
2022/04/24 11:54:48;;;;;;;;;;;19.50;60.90;;;;;;4975997;28;895;-68
2022/04/24 11:57:14;;;;;;;;;;;19.50;60.90;;;;;;4975146;28;1319;-71
2022/04/24 11:59:39;;;;;;;;;;;19.50;61.00;;;;;;4993115;28;1961;-70
2022/04/24 12:02:06;;;;;;;;;;;19.50;61.00;;;;;;4993469;28;1121;-69
2022/04/24 12:04:33;;;;;;;;;;;19.50;61.50;;;;;;4992242;28;804;-69
2022/04/24 12:06:59;;;;;;;;;;;19.50;60.10;;;;;;4991451;28;1254;-70
2022/04/24 12:09:24;;;;;;;;;;;19.50;57.60;;;;;;4975841;28;1668;-70
2022/04/24 12:11:50;;;;;;;;;;;19.40;56.90;;;;;;4993309;28;811;-69
2022/04/24 12:14:17;;;;;;;;;;;19.40;55.30;;;;;;4993148;28;878;-69
2022/04/24 12:16:46;;;;;;;;;;;19.40;54.70;;;;;;4993040;28;1209;-69
2022/04/24 12:19:13;;;;;;;;;;;19.30;53.80;;;;;;4997314;28;1855;-69
2022/04/24 12:21:46;;;;;;;;;;;19.30;53.50;;;;;;4981218;28;1910;-69
2022/04/24 12:24:11;;;;;;;;;;;19.20;53.40;;;;;;4998240;28;1216;-69
2022/04/24 12:26:47;;;;;;;;;;;19.20;52.40;;;;;;4986104;28;1293;-68
2022/04/24 12:29:12;;;;;;;;;;;19.20;52.30;;;;;;5013709;28;851;-68
2022/04/24 12:31:38;;;;;;;;;;;19.20;53.00;;;;;;4998961;28;843;-69
2022/04/24 12:34:03;;;;;;;;;;;19.20;52.20;;;;;;5016683;28;828;-70
2022/04/24 12:36:29;;;;;;;;;;;19.20;52.50;;;;;;5013186;28;1321;-70
2022/04/24 12:38:58;;;;;;;;;;;19.20;53.00;;;;;;4995017;28;2382;-71
2022/04/24 12:41:24;;;;;;;;;;;19.10;53.80;;;;;;4979289;28;1991;-71
2022/04/24 12:43:49;;;;;;;;;;;19.10;53.70;;;;;;4979113;28;1281;-70
2022/04/24 12:46:15;;;;;;;;;;;19.10;53.00;;;;;;4995346;28;1328;-71
2022/04/24 12:48:45;;;;;;;;;;;19.10;52.40;;;;;;4995605;28;884;-70
2022/04/24 12:51:12;;;;;;;;;;;19.10;52.30;;;;;;4979008;28;1068;-68
2022/04/24 12:53:37;;;;;;;;;;;19.10;52.00;;;;;;4979411;28;840;-71
2022/04/24 12:56:03;;;;;;;;;;;19.10;52.20;;;;;;4995887;28;1213;-69
2022/04/24 12:58:28;;;;;;;;;;;19.10;50.70;;;;;;4996068;28;820;-68
2022/04/24 13:00:54;;;;;;;;;;;19.10;51.40;;;;;;4978994;28;1906;-68
2022/04/24 13:03:19;;;;;;;;;;;19.10;51.70;;;;;;4996300;28;1341;-69
2022/04/24 13:05:45;;;;;;;;;;;19.10;52.10;;;;;;4996384;28;900;-68
2022/04/24 13:08:10;;;;;;;;;;;19.10;52.10;;;;;;4994252;28;1257;-69
2022/04/24 13:10:36;;;;;;;;;;;19.10;52.20;;;;;;4978442;28;819;-69
2022/04/24 13:13:01;;;;;;;;;;;19.10;52.50;;;;;;4996151;28;859;-69
2022/04/24 13:15:31;;;;;;;;;;;19.10;52.70;;;;;;4996276;28;1015;-68
2022/04/24 13:18:10;;;;;;;;;;;19.10;53.40;;;;;;4994284;28;1221;-69
2022/04/24 13:20:36;;;;;;;;;;;19.10;53.20;;;;;;4995966;28;1906;-69
2022/04/24 13:23:05;;;;;;;;;;;19.20;53.40;;;;;;4995992;28;844;-68
2022/04/24 13:25:31;;;;;;;;;;;19.10;53.40;;;;;;4994539;28;1116;-67
2022/04/24 13:27:56;;;;;;;;;;;19.20;53.70;;;;;;4995247;28;1221;-68
2022/04/24 13:30:22;;;;;;;;;;;19.20;53.80;;;;;;4991308;28;1261;-67
2022/04/24 13:32:47;;;;;;;;;;;19.20;53.80;;;;;;4998147;28;1181;-68
2022/04/24 13:35:13;;;;;;;;;;;19.20;54.00;;;;;;4961722;28;1194;-68
2022/04/24 13:40:23;;;;;;;;;;;19.20;54.20;;;;;;4993930;28;1957;-68
2022/04/24 13:42:48;;;;;;;;;;;19.20;54.40;;;;;;4995861;28;812;-68
2022/04/24 13:45:14;;;;;;;;;;;19.20;54.40;;;;;;4994395;28;855;-67
2022/04/24 13:47:39;;;;;;;;;;;19.20;54.60;;;;;;4994015;28;1284;-67
2022/04/24 13:50:05;;;;;;;;;;;19.20;54.70;;;;;;4994050;28;991;-67
2022/04/24 13:52:30;;;;;;;;;;;19.20;54.70;;;;;;4995299;28;891;-66
2022/04/24 13:54:56;;;;;;;;;;;19.30;54.90;;;;;;5010431;28;836;-69
2022/04/24 13:57:21;;;;;;;;;;;19.30;54.90;;;;;;4993640;28;1315;-70
2022/04/24 13:59:47;;;;;;;;;;;19.20;55.00;;;;;;4994120;28;1903;-69
2022/04/24 14:02:12;;;;;;;;;;;19.30;55.10;;;;;;4999624;28;1295;-71
2022/04/24 14:04:37;;;;;;;;;;;19.30;55.10;;;;;;4980559;28;1288;-71
2022/04/24 14:07:03;;;;;;;;;;;19.30;55.20;;;;;;4994629;28;1208;-69
2022/04/24 14:09:28;;;;;;;;;;;19.30;55.20;;;;;;4977984;28;815;-71
2022/04/24 14:11:54;;;;;;;;;;;19.30;55.30;;;;;;4994945;28;883;-71
2022/04/24 14:14:19;;;;;;;;;;;19.20;55.30;;;;;;4977833;28;1022;-72
2022/04/24 14:16:45;;;;;;;;;;;19.30;55.40;;;;;;4995012;28;1277;-72
2022/04/24 14:19:10;;;;;;;;;;;19.30;55.50;;;;;;4994843;28;848;-71
2022/04/24 14:21:36;;;;;;;;;;;19.30;55.50;;;;;;4993323;28;1906;-71
2022/04/24 14:24:01;;;;;;;;;;;19.30;55.50;;;;;;4994779;28;808;-71
2022/04/24 14:26:26;;;;;;;;;;;19.20;55.50;;;;;;4995052;28;1214;-71
2022/04/24 14:28:52;;;;;;;;;;;19.30;55.60;;;;;;4994454;28;876;-71
2022/04/24 14:31:17;;;;;;;;;;;19.20;55.60;;;;;;4993685;28;958;-70
2022/04/24 14:33:45;;;;;;;;;;;19.30;55.70;;;;;;4993640;28;833;-70
2022/04/24 14:36:11;;;;;;;;;;;19.30;55.70;;;;;;4993141;28;1203;-70
2022/04/24 14:38:37;;;;;;;;;;;19.20;55.70;;;;;;4994292;28;1058;-69
2022/04/24 14:41:02;;;;;;;;;;;19.20;55.70;;;;;;4977169;28;1973;-71